sensor_id;sensor_type;location;lat;lon;timestamp;temperature;humidity
5392;DHT22;2719;53.624;9.786;2023-07-09T00:00:15;21.60;99.90
5392;DHT22;2719;53.624;9.786;2023-07-09T00:02:42;21.60;99.90
5392;DHT22;2719;53.624;9.786;2023-07-09T00:05:12;21.50;99.90
5392;DHT22;2719;53.624;9.786;2023-07-09T00:07:39;21.60;99.90
5392;DHT22;2719;53.624;9.786;2023-07-09T00:10:14;21.60;99.90
5392;DHT22;2719;53.624;9.786;2023-07-09T00:12:41;21.60;99.90
5392;DHT22;2719;53.624;9.786;2023-07-09T00:15:11;21.50;99.90
5392;DHT22;2719;53.624;9.786;2023-07-09T00:17:38;21.50;99.90
5392;DHT22;2719;53.624;9.786;2023-07-09T00:20:08;21.50;99.90
5392;DHT22;2719;53.624;9.786;2023-07-09T00:22:39;21.50;99.90
5392;DHT22;2719;53.624;9.786;2023-07-09T00:25:09;21.60;99.90
5392;DHT22;2719;53.624;9.786;2023-07-09T00:27:39;21.50;99.90
5392;DHT22;2719;53.624;9.786;2023-07-09T00:30:14;21.50;99.90
5392;DHT22;2719;53.624;9.786;2023-07-09T00:32:42;21.50;99.90
5392;DHT22;2719;53.624;9.786;2023-07-09T00:35:09;21.60;99.90
5392;DHT22;2719;53.624;9.786;2023-07-09T00:37:37;21.40;99.90
5392;DHT22;2719;53.624;9.786;2023-07-09T00:40:10;21.30;99.90
5392;DHT22;2719;53.624;9.786;2023-07-09T00:42:37;21.30;99.90
5392;DHT22;2719;53.624;9.786;2023-07-09T00:45:19;21.30;99.90
5392;DHT22;2719;53.624;9.786;2023-07-09T00:47:50;21.30;99.90
5392;DHT22;2719;53.624;9.786;2023-07-09T00:50:29;21.20;99.90
5392;DHT22;2719;53.624;9.786;2023-07-09T00:53:00;21.20;99.90
5392;DHT22;2719;53.624;9.786;2023-07-09T00:55:34;21.10;99.90
5392;DHT22;2719;53.624;9.786;2023-07-09T00:58:06;21.10;99.90
5392;DHT22;2719;53.624;9.786;2023-07-09T01:00:39;21.10;99.90
5392;DHT22;2719;53.624;9.786;2023-07-09T01:03:13;21.10;99.90
5392;DHT22;2719;53.624;9.786;2023-07-09T01:05:41;21.00;99.90
5392;DHT22;2719;53.624;9.786;2023-07-09T01:08:09;20.90;99.90
5392;DHT22;2719;53.624;9.786;2023-07-09T01:10:38;21.00;99.90
5392;DHT22;2719;53.624;9.786;2023-07-09T01:13:06;21.00;99.90
5392;DHT22;2719;53.624;9.786;2023-07-09T01:15:36;21.00;99.90
5392;DHT22;2719;53.624;9.786;2023-07-09T01:18:04;21.00;99.90
5392;DHT22;2719;53.624;9.786;2023-07-09T01:20:30;20.90;99.90
5392;DHT22;2719;53.624;9.786;2023-07-09T01:22:58;20.90;99.90
5392;DHT22;2719;53.624;9.786;2023-07-09T01:25:26;20.90;99.90
5392;DHT22;2719;53.624;9.786;2023-07-09T01:27:54;20.90;99.90
5392;DHT22;2719;53.624;9.786;2023-07-09T01:30:24;20.90;99.90
5392;DHT22;2719;53.624;9.786;2023-07-09T01:32:51;20.90;99.90
5392;DHT22;2719;53.624;9.786;2023-07-09T01:35:21;21.00;99.90
5392;DHT22;2719;53.624;9.786;2023-07-09T01:37:49;20.80;99.90
5392;DHT22;2719;53.624;9.786;2023-07-09T01:40:20;20.90;99.90
5392;DHT22;2719;53.624;9.786;2023-07-09T01:42:48;20.90;99.90
5392;DHT22;2719;53.624;9.786;2023-07-09T01:45:14;20.80;99.90
5392;DHT22;2719;53.624;9.786;2023-07-09T01:47:42;20.80;99.90
5392;DHT22;2719;53.624;9.786;2023-07-09T01:50:10;20.70;99.90
5392;DHT22;2719;53.624;9.786;2023-07-09T01:52:40;20.70;99.90
5392;DHT22;2719;53.624;9.786;2023-07-09T01:55:09;20.70;99.90
5392;DHT22;2719;53.624;9.786;2023-07-09T01:57:37;20.70;99.90
5392;DHT22;2719;53.624;9.786;2023-07-09T02:00:08;20.70;99.90
5392;DHT22;2719;53.624;9.786;2023-07-09T02:02:35;20.80;99.90
5392;DHT22;2719;53.624;9.786;2023-07-09T02:05:05;20.80;99.90
5392;DHT22;2719;53.624;9.786;2023-07-09T02:07:32;20.80;99.90
5392;DHT22;2719;53.624;9.786;2023-07-09T02:09:59;20.80;99.90
5392;DHT22;2719;53.624;9.786;2023-07-09T02:12:25;20.80;99.90
5392;DHT22;2719;53.624;9.786;2023-07-09T02:14:53;20.70;99.90
5392;DHT22;2719;53.624;9.786;2023-07-09T02:17:20;20.60;99.90
5392;DHT22;2719;53.624;9.786;2023-07-09T02:19:47;20.60;99.90
5392;DHT22;2719;53.624;9.786;2023-07-09T02:22:13;20.60;99.90
5392;DHT22;2719;53.624;9.786;2023-07-09T02:24:40;20.60;99.90
5392;DHT22;2719;53.624;9.786;2023-07-09T02:27:08;20.60;99.90
5392;DHT22;2719;53.624;9.786;2023-07-09T02:29:36;20.50;99.90
5392;DHT22;2719;53.624;9.786;2023-07-09T02:32:06;20.40;99.90
5392;DHT22;2719;53.624;9.786;2023-07-09T02:34:33;20.50;99.90
5392;DHT22;2719;53.624;9.786;2023-07-09T02:37:00;20.60;99.90
5392;DHT22;2719;53.624;9.786;2023-07-09T02:39:27;20.60;99.90
5392;DHT22;2719;53.624;9.786;2023-07-09T02:41:54;20.60;99.90
5392;DHT22;2719;53.624;9.786;2023-07-09T02:44:20;20.50;99.90
5392;DHT22;2719;53.624;9.786;2023-07-09T02:46:47;20.50;99.90
5392;DHT22;2719;53.624;9.786;2023-07-09T02:49:15;20.50;99.90
5392;DHT22;2719;53.624;9.786;2023-07-09T02:51:42;20.50;99.90
5392;DHT22;2719;53.624;9.786;2023-07-09T02:54:09;20.40;99.90
5392;DHT22;2719;53.624;9.786;2023-07-09T02:56:35;20.40;99.90
5392;DHT22;2719;53.624;9.786;2023-07-09T02:59:02;20.40;99.90
5392;DHT22;2719;53.624;9.786;2023-07-09T03:01:29;20.30;99.90
5392;DHT22;2719;53.624;9.786;2023-07-09T03:04:00;20.30;99.90
5392;DHT22;2719;53.624;9.786;2023-07-09T03:06:29;20.30;99.90
5392;DHT22;2719;53.624;9.786;2023-07-09T03:08:58;20.20;99.90
5392;DHT22;2719;53.624;9.786;2023-07-09T03:11:25;20.20;99.90
5392;DHT22;2719;53.624;9.786;2023-07-09T03:13:53;20.20;99.90
5392;DHT22;2719;53.624;9.786;2023-07-09T03:16:19;20.20;99.90
5392;DHT22;2719;53.624;9.786;2023-07-09T03:18:46;20.10;99.90
5392;DHT22;2719;53.624;9.786;2023-07-09T03:21:12;20.10;99.90
5392;DHT22;2719;53.624;9.786;2023-07-09T03:23:41;20.10;99.90
5392;DHT22;2719;53.624;9.786;2023-07-09T03:26:08;20.10;99.90
5392;DHT22;2719;53.624;9.786;2023-07-09T03:28:35;20.20;99.90
5392;DHT22;2719;53.624;9.786;2023-07-09T03:31:01;20.10;99.90
5392;DHT22;2719;53.624;9.786;2023-07-09T03:33:28;20.10;99.90
5392;DHT22;2719;53.624;9.786;2023-07-09T03:35:55;20.10;99.90
5392;DHT22;2719;53.624;9.786;2023-07-09T03:38:22;20.20;99.90
5392;DHT22;2719;53.624;9.786;2023-07-09T03:40:51;20.20;99.90
5392;DHT22;2719;53.624;9.786;2023-07-09T03:43:18;20.20;99.90
5392;DHT22;2719;53.624;9.786;2023-07-09T03:45:46;20.20;99.90
5392;DHT22;2719;53.624;9.786;2023-07-09T03:48:15;20.10;99.90
5392;DHT22;2719;53.624;9.786;2023-07-09T03:50:43;20.10;99.90
5392;DHT22;2719;53.624;9.786;2023-07-09T03:53:10;20.00;99.90
5392;DHT22;2719;53.624;9.786;2023-07-09T03:55:36;20.00;99.90
5392;DHT22;2719;53.624;9.786;2023-07-09T03:58:05;19.90;99.90
5392;DHT22;2719;53.624;9.786;2023-07-09T04:00:32;19.90;99.90
5392;DHT22;2719;53.624;9.786;2023-07-09T04:03:00;19.90;99.90
5392;DHT22;2719;53.624;9.786;2023-07-09T04:05:27;20.00;99.90
5392;DHT22;2719;53.624;9.786;2023-07-09T04:07:54;20.00;99.90
5392;DHT22;2719;53.624;9.786;2023-07-09T04:10:21;20.00;99.90
5392;DHT22;2719;53.624;9.786;2023-07-09T04:12:48;20.10;99.90
5392;DHT22;2719;53.624;9.786;2023-07-09T04:15:16;20.10;99.90
5392;DHT22;2719;53.624;9.786;2023-07-09T04:17:42;20.20;99.90
5392;DHT22;2719;53.624;9.786;2023-07-09T04:20:10;20.20;99.90
5392;DHT22;2719;53.624;9.786;2023-07-09T04:22:38;20.20;99.90
5392;DHT22;2719;53.624;9.786;2023-07-09T04:25:07;20.10;99.90
5392;DHT22;2719;53.624;9.786;2023-07-09T04:27:35;20.10;99.90
5392;DHT22;2719;53.624;9.786;2023-07-09T04:30:03;20.00;99.90
5392;DHT22;2719;53.624;9.786;2023-07-09T04:32:32;19.90;99.90
5392;DHT22;2719;53.624;9.786;2023-07-09T04:34:58;19.90;99.90
5392;DHT22;2719;53.624;9.786;2023-07-09T04:37:25;19.90;99.90
5392;DHT22;2719;53.624;9.786;2023-07-09T04:39:52;19.90;99.90
5392;DHT22;2719;53.624;9.786;2023-07-09T04:42:18;20.00;99.90
5392;DHT22;2719;53.624;9.786;2023-07-09T04:44:45;20.00;99.90
5392;DHT22;2719;53.624;9.786;2023-07-09T04:47:12;19.90;99.90
5392;DHT22;2719;53.624;9.786;2023-07-09T04:49:40;19.90;99.90
5392;DHT22;2719;53.624;9.786;2023-07-09T04:52:08;20.00;99.90
5392;DHT22;2719;53.624;9.786;2023-07-09T04:54:39;20.00;99.90
5392;DHT22;2719;53.624;9.786;2023-07-09T04:57:06;20.00;99.90
5392;DHT22;2719;53.624;9.786;2023-07-09T04:59:33;20.00;99.60
5392;DHT22;2719;53.624;9.786;2023-07-09T05:01:59;20.10;99.60
5392;DHT22;2719;53.624;9.786;2023-07-09T05:04:26;20.10;99.30
5392;DHT22;2719;53.624;9.786;2023-07-09T05:06:54;20.20;99.40
5392;DHT22;2719;53.624;9.786;2023-07-09T05:09:21;20.30;99.30
5392;DHT22;2719;53.624;9.786;2023-07-09T05:11:49;20.30;99.30
5392;DHT22;2719;53.624;9.786;2023-07-09T05:14:16;20.40;98.90
5392;DHT22;2719;53.624;9.786;2023-07-09T05:16:43;20.50;99.00
5392;DHT22;2719;53.624;9.786;2023-07-09T05:19:09;20.50;98.80
5392;DHT22;2719;53.624;9.786;2023-07-09T05:21:36;20.40;98.50
5392;DHT22;2719;53.624;9.786;2023-07-09T05:24:05;20.50;98.70
5392;DHT22;2719;53.624;9.786;2023-07-09T05:26:32;20.60;98.20
5392;DHT22;2719;53.624;9.786;2023-07-09T05:28:59;20.60;98.10
5392;DHT22;2719;53.624;9.786;2023-07-09T05:31:25;20.60;97.80
5392;DHT22;2719;53.624;9.786;2023-07-09T05:33:52;20.70;97.70
5392;DHT22;2719;53.624;9.786;2023-07-09T05:36:19;20.70;97.80
5392;DHT22;2719;53.624;9.786;2023-07-09T05:38:45;20.80;98.20
5392;DHT22;2719;53.624;9.786;2023-07-09T05:41:14;20.90;97.70
5392;DHT22;2719;53.624;9.786;2023-07-09T05:43:42;21.00;97.60
5392;DHT22;2719;53.624;9.786;2023-07-09T05:46:09;21.10;98.30
5392;DHT22;2719;53.624;9.786;2023-07-09T05:48:36;21.10;97.40
5392;DHT22;2719;53.624;9.786;2023-07-09T05:51:03;21.10;97.70
5392;DHT22;2719;53.624;9.786;2023-07-09T05:53:29;21.10;97.20
5392;DHT22;2719;53.624;9.786;2023-07-09T05:55:57;21.20;97.10
5392;DHT22;2719;53.624;9.786;2023-07-09T05:58:26;21.30;96.90
5392;DHT22;2719;53.624;9.786;2023-07-09T06:00:53;21.40;97.40
5392;DHT22;2719;53.624;9.786;2023-07-09T06:03:25;21.50;96.90
5392;DHT22;2719;53.624;9.786;2023-07-09T06:05:52;21.70;97.20
5392;DHT22;2719;53.624;9.786;2023-07-09T06:08:19;21.70;96.40
5392;DHT22;2719;53.624;9.786;2023-07-09T06:10:53;21.70;96.70
5392;DHT22;2719;53.624;9.786;2023-07-09T06:13:20;21.80;96.40
5392;DHT22;2719;53.624;9.786;2023-07-09T06:15:48;21.90;96.90
5392;DHT22;2719;53.624;9.786;2023-07-09T06:18:15;22.00;96.60
5392;DHT22;2719;53.624;9.786;2023-07-09T06:20:46;22.10;97.00
5392;DHT22;2719;53.624;9.786;2023-07-09T06:23:13;22.30;97.20
5392;DHT22;2719;53.624;9.786;2023-07-09T06:25:40;22.30;97.10
5392;DHT22;2719;53.624;9.786;2023-07-09T06:28:07;22.30;96.50
5392;DHT22;2719;53.624;9.786;2023-07-09T06:30:33;22.40;96.80
5392;DHT22;2719;53.624;9.786;2023-07-09T06:33:02;22.50;97.10
5392;DHT22;2719;53.624;9.786;2023-07-09T06:35:29;22.60;97.10
5392;DHT22;2719;53.624;9.786;2023-07-09T06:37:56;22.50;96.50
5392;DHT22;2719;53.624;9.786;2023-07-09T06:40:22;22.60;97.10
5392;DHT22;2719;53.624;9.786;2023-07-09T06:42:50;22.70;97.40
5392;DHT22;2719;53.624;9.786;2023-07-09T06:45:17;22.60;96.70
5392;DHT22;2719;53.624;9.786;2023-07-09T06:47:43;22.70;96.10
5392;DHT22;2719;53.624;9.786;2023-07-09T06:50:11;22.70;96.80
5392;DHT22;2719;53.624;9.786;2023-07-09T06:52:38;22.80;96.70
5392;DHT22;2719;53.624;9.786;2023-07-09T06:55:06;22.90;97.20
5392;DHT22;2719;53.624;9.786;2023-07-09T06:57:33;23.00;97.10
5392;DHT22;2719;53.624;9.786;2023-07-09T07:00:00;23.10;96.90
5392;DHT22;2719;53.624;9.786;2023-07-09T07:02:27;23.10;95.80
5392;DHT22;2719;53.624;9.786;2023-07-09T07:04:54;23.20;96.80
5392;DHT22;2719;53.624;9.786;2023-07-09T07:07:22;23.20;96.50
5392;DHT22;2719;53.624;9.786;2023-07-09T07:09:49;23.30;96.70
5392;DHT22;2719;53.624;9.786;2023-07-09T07:12:24;23.40;96.20
5392;DHT22;2719;53.624;9.786;2023-07-09T07:14:51;23.40;95.80
5392;DHT22;2719;53.624;9.786;2023-07-09T07:17:18;23.50;95.60
5392;DHT22;2719;53.624;9.786;2023-07-09T07:19:45;23.50;96.10
5392;DHT22;2719;53.624;9.786;2023-07-09T07:22:12;23.60;96.30
5392;DHT22;2719;53.624;9.786;2023-07-09T07:24:40;23.50;95.90
5392;DHT22;2719;53.624;9.786;2023-07-09T07:27:07;23.60;95.60
5392;DHT22;2719;53.624;9.786;2023-07-09T07:29:34;23.60;95.80
5392;DHT22;2719;53.624;9.786;2023-07-09T07:32:01;23.70;96.90
5392;DHT22;2719;53.624;9.786;2023-07-09T07:34:28;23.80;95.80
5392;DHT22;2719;53.624;9.786;2023-07-09T07:36:54;23.80;96.30
5392;DHT22;2719;53.624;9.786;2023-07-09T07:39:21;23.90;96.10
5392;DHT22;2719;53.624;9.786;2023-07-09T07:41:49;23.90;96.10
5392;DHT22;2719;53.624;9.786;2023-07-09T07:44:16;23.90;96.70
5392;DHT22;2719;53.624;9.786;2023-07-09T07:46:43;24.00;97.10
5392;DHT22;2719;53.624;9.786;2023-07-09T07:49:10;24.10;96.50
5392;DHT22;2719;53.624;9.786;2023-07-09T07:51:36;24.20;96.20
5392;DHT22;2719;53.624;9.786;2023-07-09T07:54:03;24.30;96.50
5392;DHT22;2719;53.624;9.786;2023-07-09T07:56:30;24.30;94.80
5392;DHT22;2719;53.624;9.786;2023-07-09T07:58:58;24.30;94.50
5392;DHT22;2719;53.624;9.786;2023-07-09T08:01:25;24.30;95.30
5392;DHT22;2719;53.624;9.786;2023-07-09T08:03:51;24.40;95.50
5392;DHT22;2719;53.624;9.786;2023-07-09T08:06:18;24.50;95.20
5392;DHT22;2719;53.624;9.786;2023-07-09T08:08:45;24.50;95.50
5392;DHT22;2719;53.624;9.786;2023-07-09T08:11:12;24.60;95.40
5392;DHT22;2719;53.624;9.786;2023-07-09T08:13:38;24.70;95.40
5392;DHT22;2719;53.624;9.786;2023-07-09T08:16:07;24.80;95.60
5392;DHT22;2719;53.624;9.786;2023-07-09T08:18:34;24.90;96.00
5392;DHT22;2719;53.624;9.786;2023-07-09T08:21:00;24.90;95.60
5392;DHT22;2719;53.624;9.786;2023-07-09T08:23:28;24.90;95.70
5392;DHT22;2719;53.624;9.786;2023-07-09T08:25:55;24.90;96.30
5392;DHT22;2719;53.624;9.786;2023-07-09T08:28:22;25.10;95.70
5392;DHT22;2719;53.624;9.786;2023-07-09T08:30:51;25.20;95.90
5392;DHT22;2719;53.624;9.786;2023-07-09T08:33:19;25.30;95.70
5392;DHT22;2719;53.624;9.786;2023-07-09T08:35:45;25.30;96.10
5392;DHT22;2719;53.624;9.786;2023-07-09T08:38:12;25.40;94.70
5392;DHT22;2719;53.624;9.786;2023-07-09T08:40:40;25.40;94.70
5392;DHT22;2719;53.624;9.786;2023-07-09T08:43:14;25.40;94.90
5392;DHT22;2719;53.624;9.786;2023-07-09T08:45:47;25.50;94.50
5392;DHT22;2719;53.624;9.786;2023-07-09T08:48:22;25.60;94.60
5392;DHT22;2719;53.624;9.786;2023-07-09T08:50:55;25.50;95.10
5392;DHT22;2719;53.624;9.786;2023-07-09T08:53:29;25.70;94.60
5392;DHT22;2719;53.624;9.786;2023-07-09T08:55:58;25.80;94.40
5392;DHT22;2719;53.624;9.786;2023-07-09T08:58:27;25.80;93.80
5392;DHT22;2719;53.624;9.786;2023-07-09T09:00:56;25.80;94.70
5392;DHT22;2719;53.624;9.786;2023-07-09T09:03:31;25.70;94.30
5392;DHT22;2719;53.624;9.786;2023-07-09T09:06:01;25.80;94.00
5392;DHT22;2719;53.624;9.786;2023-07-09T09:08:35;25.90;94.00
5392;DHT22;2719;53.624;9.786;2023-07-09T09:11:10;26.00;93.90
5392;DHT22;2719;53.624;9.786;2023-07-09T09:13:39;26.10;93.20
5392;DHT22;2719;53.624;9.786;2023-07-09T09:16:11;26.20;93.20
5392;DHT22;2719;53.624;9.786;2023-07-09T09:18:43;26.30;93.80
5392;DHT22;2719;53.624;9.786;2023-07-09T09:21:15;26.30;93.20
5392;DHT22;2719;53.624;9.786;2023-07-09T09:23:46;26.30;93.40
5392;DHT22;2719;53.624;9.786;2023-07-09T09:26:17;26.40;93.00
5392;DHT22;2719;53.624;9.786;2023-07-09T09:28:44;26.40;93.30
5392;DHT22;2719;53.624;9.786;2023-07-09T09:31:11;26.40;93.00
5392;DHT22;2719;53.624;9.786;2023-07-09T09:33:42;26.50;92.90
5392;DHT22;2719;53.624;9.786;2023-07-09T09:36:15;26.60;93.20
5392;DHT22;2719;53.624;9.786;2023-07-09T09:38:42;26.70;92.80
5392;DHT22;2719;53.624;9.786;2023-07-09T09:41:13;26.70;92.60
5392;DHT22;2719;53.624;9.786;2023-07-09T09:43:42;26.80;92.50
5392;DHT22;2719;53.624;9.786;2023-07-09T09:46:17;26.80;92.50
5392;DHT22;2719;53.624;9.786;2023-07-09T09:48:48;26.80;92.90
5392;DHT22;2719;53.624;9.786;2023-07-09T09:51:15;26.90;93.30
5392;DHT22;2719;53.624;9.786;2023-07-09T09:53:46;26.90;92.70
5392;DHT22;2719;53.624;9.786;2023-07-09T09:56:17;26.90;92.90
5392;DHT22;2719;53.624;9.786;2023-07-09T09:58:44;26.90;93.20
5392;DHT22;2719;53.624;9.786;2023-07-09T10:01:14;27.10;93.40
5392;DHT22;2719;53.624;9.786;2023-07-09T10:03:42;27.10;92.50
5392;DHT22;2719;53.624;9.786;2023-07-09T10:06:15;27.10;93.40
5392;DHT22;2719;53.624;9.786;2023-07-09T10:08:50;27.30;93.00
5392;DHT22;2719;53.624;9.786;2023-07-09T10:11:27;27.40;92.10
5392;DHT22;2719;53.624;9.786;2023-07-09T10:14:00;27.30;92.00
5392;DHT22;2719;53.624;9.786;2023-07-09T10:16:34;27.40;91.80
5392;DHT22;2719;53.624;9.786;2023-07-09T10:19:12;27.40;91.80
5392;DHT22;2719;53.624;9.786;2023-07-09T10:21:45;27.50;92.00
5392;DHT22;2719;53.624;9.786;2023-07-09T10:24:25;27.50;92.20
5392;DHT22;2719;53.624;9.786;2023-07-09T10:26:57;27.50;93.20
5392;DHT22;2719;53.624;9.786;2023-07-09T10:29:37;27.60;92.00
5392;DHT22;2719;53.624;9.786;2023-07-09T10:32:17;27.70;91.70
5392;DHT22;2719;53.624;9.786;2023-07-09T10:34:54;27.80;91.70
5392;DHT22;2719;53.624;9.786;2023-07-09T10:37:39;27.90;91.70
5392;DHT22;2719;53.624;9.786;2023-07-09T10:40:12;28.00;91.70
5392;DHT22;2719;53.624;9.786;2023-07-09T10:42:43;28.00;91.30
5392;DHT22;2719;53.624;9.786;2023-07-09T10:45:12;28.00;91.80
5392;DHT22;2719;53.624;9.786;2023-07-09T10:47:42;28.00;91.40
5392;DHT22;2719;53.624;9.786;2023-07-09T10:50:15;28.10;91.30
5392;DHT22;2719;53.624;9.786;2023-07-09T10:52:47;28.00;91.60
5392;DHT22;2719;53.624;9.786;2023-07-09T10:55:18;28.20;90.90
5392;DHT22;2719;53.624;9.786;2023-07-09T10:57:52;28.20;91.80
5392;DHT22;2719;53.624;9.786;2023-07-09T11:00:22;28.20;91.80
5392;DHT22;2719;53.624;9.786;2023-07-09T11:02:54;28.20;91.90
5392;DHT22;2719;53.624;9.786;2023-07-09T11:05:24;28.30;90.30
5392;DHT22;2719;53.624;9.786;2023-07-09T11:07:58;28.40;90.00
5392;DHT22;2719;53.624;9.786;2023-07-09T11:10:30;28.50;90.60
5392;DHT22;2719;53.624;9.786;2023-07-09T11:13:02;28.50;91.10
5392;DHT22;2719;53.624;9.786;2023-07-09T11:15:32;28.50;91.90
5392;DHT22;2719;53.624;9.786;2023-07-09T11:18:05;28.60;90.40
5392;DHT22;2719;53.624;9.786;2023-07-09T11:20:34;28.60;90.40
5392;DHT22;2719;53.624;9.786;2023-07-09T11:23:05;28.60;89.20
5392;DHT22;2719;53.624;9.786;2023-07-09T11:25:41;28.70;90.20
5392;DHT22;2719;53.624;9.786;2023-07-09T11:28:08;28.80;91.60
5392;DHT22;2719;53.624;9.786;2023-07-09T11:30:46;28.80;89.40
5392;DHT22;2719;53.624;9.786;2023-07-09T11:33:19;28.90;89.40
5392;DHT22;2719;53.624;9.786;2023-07-09T11:35:47;28.90;88.60
5392;DHT22;2719;53.624;9.786;2023-07-09T11:38:19;28.90;90.50
5392;DHT22;2719;53.624;9.786;2023-07-09T11:40:47;29.00;90.00
5392;DHT22;2719;53.624;9.786;2023-07-09T11:43:27;29.10;89.00
5392;DHT22;2719;53.624;9.786;2023-07-09T11:45:55;29.10;89.90
5392;DHT22;2719;53.624;9.786;2023-07-09T11:48:25;29.20;86.30
5392;DHT22;2719;53.624;9.786;2023-07-09T11:50:54;29.30;89.30
5392;DHT22;2719;53.624;9.786;2023-07-09T11:53:29;29.30;82.40
5392;DHT22;2719;53.624;9.786;2023-07-09T11:55:58;29.40;84.00
5392;DHT22;2719;53.624;9.786;2023-07-09T11:58:24;29.40;81.80
5392;DHT22;2719;53.624;9.786;2023-07-09T12:00:54;29.50;79.70
5392;DHT22;2719;53.624;9.786;2023-07-09T12:03:27;29.60;81.20
5392;DHT22;2719;53.624;9.786;2023-07-09T12:06:00;29.60;80.20
5392;DHT22;2719;53.624;9.786;2023-07-09T12:08:35;29.70;80.50
5392;DHT22;2719;53.624;9.786;2023-07-09T12:11:02;29.70;82.50
5392;DHT22;2719;53.624;9.786;2023-07-09T12:13:36;29.80;79.00
5392;DHT22;2719;53.624;9.786;2023-07-09T12:16:03;29.80;80.30
5392;DHT22;2719;53.624;9.786;2023-07-09T12:18:30;29.80;80.80
5392;DHT22;2719;53.624;9.786;2023-07-09T12:20:57;29.80;76.90
5392;DHT22;2719;53.624;9.786;2023-07-09T12:23:30;29.80;78.90
5392;DHT22;2719;53.624;9.786;2023-07-09T12:26:01;29.90;81.20
5392;DHT22;2719;53.624;9.786;2023-07-09T12:28:29;29.90;79.20
5392;DHT22;2719;53.624;9.786;2023-07-09T12:30:56;29.90;80.00
5392;DHT22;2719;53.624;9.786;2023-07-09T12:33:24;29.80;78.90
5392;DHT22;2719;53.624;9.786;2023-07-09T12:35:55;29.90;78.50
5392;DHT22;2719;53.624;9.786;2023-07-09T12:38:24;30.10;78.30
5392;DHT22;2719;53.624;9.786;2023-07-09T12:40:52;30.10;77.30
5392;DHT22;2719;53.624;9.786;2023-07-09T12:43:25;30.30;77.80
5392;DHT22;2719;53.624;9.786;2023-07-09T12:45:53;30.30;78.50
5392;DHT22;2719;53.624;9.786;2023-07-09T12:48:22;30.30;77.00
5392;DHT22;2719;53.624;9.786;2023-07-09T12:50:51;30.30;75.90
5392;DHT22;2719;53.624;9.786;2023-07-09T12:53:19;30.40;76.80
5392;DHT22;2719;53.624;9.786;2023-07-09T12:55:48;30.60;74.40
5392;DHT22;2719;53.624;9.786;2023-07-09T12:58:19;30.60;75.90
5392;DHT22;2719;53.624;9.786;2023-07-09T13:00:50;30.70;77.10
5392;DHT22;2719;53.624;9.786;2023-07-09T13:03:19;30.70;72.90
5392;DHT22;2719;53.624;9.786;2023-07-09T13:05:55;31.00;74.80
5392;DHT22;2719;53.624;9.786;2023-07-09T13:08:23;31.20;77.80
5392;DHT22;2719;53.624;9.786;2023-07-09T13:10:51;31.10;75.40
5392;DHT22;2719;53.624;9.786;2023-07-09T13:13:20;30.90;73.80
5392;DHT22;2719;53.624;9.786;2023-07-09T13:15:52;31.00;73.90
5392;DHT22;2719;53.624;9.786;2023-07-09T13:18:28;31.00;74.10
5392;DHT22;2719;53.624;9.786;2023-07-09T13:20:57;31.10;74.40
5392;DHT22;2719;53.624;9.786;2023-07-09T13:23:25;31.30;77.60
5392;DHT22;2719;53.624;9.786;2023-07-09T13:25:53;31.30;75.00
5392;DHT22;2719;53.624;9.786;2023-07-09T13:28:23;31.50;76.00
5392;DHT22;2719;53.624;9.786;2023-07-09T13:30:55;31.50;74.10
5392;DHT22;2719;53.624;9.786;2023-07-09T13:33:23;31.50;73.60
5392;DHT22;2719;53.624;9.786;2023-07-09T13:35:49;31.70;73.80
5392;DHT22;2719;53.624;9.786;2023-07-09T13:38:20;31.70;73.40
5392;DHT22;2719;53.624;9.786;2023-07-09T13:40:48;31.60;69.20
5392;DHT22;2719;53.624;9.786;2023-07-09T13:43:17;31.60;69.90
5392;DHT22;2719;53.624;9.786;2023-07-09T13:45:45;31.70;73.40
5392;DHT22;2719;53.624;9.786;2023-07-09T13:48:17;31.80;72.10
5392;DHT22;2719;53.624;9.786;2023-07-09T13:50:46;31.90;70.50
5392;DHT22;2719;53.624;9.786;2023-07-09T13:53:16;32.00;69.40
5392;DHT22;2719;53.624;9.786;2023-07-09T13:55:44;32.10;70.70
5392;DHT22;2719;53.624;9.786;2023-07-09T13:58:11;32.10;69.70
5392;DHT22;2719;53.624;9.786;2023-07-09T14:00:40;31.90;68.70
5392;DHT22;2719;53.624;9.786;2023-07-09T14:03:14;31.90;69.50
5392;DHT22;2719;53.624;9.786;2023-07-09T14:05:41;31.90;71.00
5392;DHT22;2719;53.624;9.786;2023-07-09T14:08:09;31.90;67.50
5392;DHT22;2719;53.624;9.786;2023-07-09T14:10:36;32.00;69.40
5392;DHT22;2719;53.624;9.786;2023-07-09T14:13:03;31.90;68.40
5392;DHT22;2719;53.624;9.786;2023-07-09T14:15:30;31.90;67.70
5392;DHT22;2719;53.624;9.786;2023-07-09T14:17:57;32.00;68.10
5392;DHT22;2719;53.624;9.786;2023-07-09T14:20:25;32.10;71.00
5392;DHT22;2719;53.624;9.786;2023-07-09T14:22:52;32.10;67.10
5392;DHT22;2719;53.624;9.786;2023-07-09T14:25:21;32.10;67.80
5392;DHT22;2719;53.624;9.786;2023-07-09T14:27:49;32.20;68.50
5392;DHT22;2719;53.624;9.786;2023-07-09T14:30:17;32.20;68.50
5392;DHT22;2719;53.624;9.786;2023-07-09T14:32:45;32.30;65.60
5392;DHT22;2719;53.624;9.786;2023-07-09T14:35:15;32.10;63.90
5392;DHT22;2719;53.624;9.786;2023-07-09T14:37:45;32.20;64.40
5392;DHT22;2719;53.624;9.786;2023-07-09T14:40:16;32.20;63.50
5392;DHT22;2719;53.624;9.786;2023-07-09T14:42:44;32.40;65.40
5392;DHT22;2719;53.624;9.786;2023-07-09T14:45:19;32.50;68.40
5392;DHT22;2719;53.624;9.786;2023-07-09T14:47:46;32.70;64.50
5392;DHT22;2719;53.624;9.786;2023-07-09T14:50:13;32.70;62.50
5392;DHT22;2719;53.624;9.786;2023-07-09T14:52:41;32.80;62.90
5392;DHT22;2719;53.624;9.786;2023-07-09T14:55:13;32.90;62.40
5392;DHT22;2719;53.624;9.786;2023-07-09T14:57:40;33.00;62.60
5392;DHT22;2719;53.624;9.786;2023-07-09T15:00:12;32.90;61.80
5392;DHT22;2719;53.624;9.786;2023-07-09T15:02:41;32.90;59.90
5392;DHT22;2719;53.624;9.786;2023-07-09T15:05:12;33.00;61.10
5392;DHT22;2719;53.624;9.786;2023-07-09T15:07:39;33.10;61.70
5392;DHT22;2719;53.624;9.786;2023-07-09T15:10:08;33.10;59.90
5392;DHT22;2719;53.624;9.786;2023-07-09T15:12:39;33.10;59.80
5392;DHT22;2719;53.624;9.786;2023-07-09T15:15:13;33.10;60.00
5392;DHT22;2719;53.624;9.786;2023-07-09T15:17:41;33.20;59.20
5392;DHT22;2719;53.624;9.786;2023-07-09T15:20:13;33.20;61.30
5392;DHT22;2719;53.624;9.786;2023-07-09T15:22:41;33.30;62.70
5392;DHT22;2719;53.624;9.786;2023-07-09T15:25:13;33.30;61.30
5392;DHT22;2719;53.624;9.786;2023-07-09T15:27:42;33.10;58.80
5392;DHT22;2719;53.624;9.786;2023-07-09T15:30:13;33.20;59.00
5392;DHT22;2719;53.624;9.786;2023-07-09T15:32:40;33.10;59.70
5392;DHT22;2719;53.624;9.786;2023-07-09T15:35:08;33.00;58.90
5392;DHT22;2719;53.624;9.786;2023-07-09T15:37:34;32.90;58.30
5392;DHT22;2719;53.624;9.786;2023-07-09T15:40:01;32.90;58.90
5392;DHT22;2719;53.624;9.786;2023-07-09T15:42:29;32.70;58.00
5392;DHT22;2719;53.624;9.786;2023-07-09T15:44:57;32.70;59.60
5392;DHT22;2719;53.624;9.786;2023-07-09T15:47:26;32.70;60.40
5392;DHT22;2719;53.624;9.786;2023-07-09T15:49:52;32.70;59.70
5392;DHT22;2719;53.624;9.786;2023-07-09T15:52:19;32.60;60.10
5392;DHT22;2719;53.624;9.786;2023-07-09T15:54:46;32.50;59.70
5392;DHT22;2719;53.624;9.786;2023-07-09T15:57:14;32.40;60.00
5392;DHT22;2719;53.624;9.786;2023-07-09T15:59:41;32.20;59.60
5392;DHT22;2719;53.624;9.786;2023-07-09T16:02:12;32.20;60.00
5392;DHT22;2719;53.624;9.786;2023-07-09T16:04:43;32.00;60.00
5392;DHT22;2719;53.624;9.786;2023-07-09T16:07:10;31.80;61.40
5392;DHT22;2719;53.624;9.786;2023-07-09T16:09:37;31.70;62.50
5392;DHT22;2719;53.624;9.786;2023-07-09T16:12:07;31.70;63.00